createdAt,value
2018-01-29T00:00:46.157Z,84.43
2018-01-29T00:03:15.094Z,84.32
2018-01-29T00:05:42.528Z,83.98
2018-01-29T00:08:09.972Z,84.67
2018-01-29T00:10:37.428Z,84.50
2018-01-29T00:13:04.864Z,84.64
2018-01-29T00:15:32.333Z,84.46
2018-01-29T00:17:59.769Z,84.85
2018-01-29T00:20:27.416Z,85.07
2018-01-29T00:22:54.876Z,85.01
2018-01-29T00:25:22.320Z,85.16
2018-01-29T00:27:49.792Z,84.53
2018-01-29T00:30:17.233Z,84.65
2018-01-29T00:32:44.671Z,85.11
2018-01-29T00:35:12.156Z,84.94
2018-01-29T00:37:39.596Z,85.02
2018-01-29T00:40:07.249Z,85.06
2018-01-29T00:42:34.702Z,84.85
2018-01-29T00:45:02.138Z,84.35
2018-01-29T00:47:29.598Z,84.39
2018-01-29T00:49:57.033Z,84.87
2018-01-29T00:52:24.901Z,85.28
2018-01-29T00:54:52.750Z,85.18
2018-01-29T00:57:20.189Z,85.51
2018-01-29T00:59:47.651Z,85.48
2018-01-29T01:02:15.085Z,85.83
2018-01-29T01:04:42.576Z,85.62
2018-01-29T01:07:10.212Z,85.57
2018-01-29T01:09:37.653Z,85.38
2018-01-29T01:12:05.136Z,85.62
2018-01-29T01:14:32.568Z,85.58
2018-01-29T01:17:00.304Z,85.95
2018-01-29T01:19:28.247Z,85.61
2018-01-29T01:21:55.716Z,85.86
2018-01-29T01:24:23.173Z,84.24
2018-01-29T01:26:50.629Z,84.76
2018-01-29T01:29:18.397Z,85.35
2018-01-29T01:31:45.948Z,84.56
2018-01-29T01:34:13.386Z,85.48
2018-01-29T01:36:40.855Z,85.40
2018-01-29T01:39:08.298Z,84.35
2018-01-29T01:41:35.976Z,84.59
2018-01-29T01:44:03.421Z,84.47
2018-01-29T01:46:30.861Z,85.04
2018-01-29T01:48:58.329Z,84.25
2018-01-29T01:51:25.765Z,85.23
2018-01-29T01:53:53.232Z,85.80
2018-01-29T01:56:20.676Z,85.29
2018-01-29T01:58:48.116Z,86.14
2018-01-29T02:01:15.639Z,85.82
2018-01-29T02:03:43.085Z,85.55
2018-01-29T02:06:10.544Z,85.73
2018-01-29T02:08:37.984Z,85.72
2018-01-29T02:11:05.432Z,85.75
2018-01-29T02:13:32.900Z,86.02
2018-01-29T02:16:00.340Z,86.50
2018-01-29T02:18:28.017Z,85.98
2018-01-29T02:20:55.467Z,86.00
2018-01-29T02:23:23.060Z,86.29
2018-01-29T02:25:50.540Z,86.17
2018-01-29T02:28:18.012Z,86.24
2018-01-29T02:30:45.908Z,86.39
2018-01-29T02:33:13.392Z,86.50
2018-01-29T02:35:41.235Z,86.09
2018-01-29T02:38:08.708Z,86.60
2018-01-29T02:40:36.149Z,86.29
2018-01-29T02:43:03.609Z,86.17
2018-01-29T02:45:31.049Z,85.86
2018-01-29T02:47:58.484Z,85.36
2018-01-29T02:50:25.978Z,84.81
2018-01-29T02:52:53.418Z,85.51
2018-01-29T02:55:21.041Z,85.59
2018-01-29T02:57:48.489Z,85.48
2018-01-29T03:00:15.933Z,85.01
2018-01-29T03:02:43.400Z,84.56
2018-01-29T03:05:10.841Z,85.18
2018-01-29T03:07:38.479Z,85.58
2018-01-29T03:10:05.935Z,85.92
2018-01-29T03:12:33.369Z,85.73
2018-01-29T03:15:00.832Z,86.40
2018-01-29T03:17:28.277Z,86.19
2018-01-29T03:19:55.966Z,86.78
2018-01-29T03:22:23.419Z,85.96
2018-01-29T03:24:50.857Z,86.18
2018-01-29T03:27:18.312Z,86.50
2018-01-29T03:29:45.749Z,86.78
2018-01-29T03:32:13.348Z,87.28
2018-01-29T03:34:40.780Z,87.11
2018-01-29T03:37:08.232Z,86.40
2018-01-29T03:39:35.705Z,87.19
2018-01-29T03:42:03.145Z,86.87
2018-01-29T03:44:31.052Z,86.59
2018-01-29T03:46:58.497Z,86.69
2018-01-29T03:49:25.929Z,86.88
2018-01-29T03:51:53.385Z,86.67
2018-01-29T03:54:20.838Z,86.59
2018-01-29T03:56:48.626Z,86.28
2018-01-29T03:59:16.069Z,86.34
2018-01-29T04:01:43.500Z,85.64
2018-01-29T04:04:10.959Z,85.61
2018-01-29T04:06:38.402Z,85.17
2018-01-29T04:09:05.876Z,85.49
2018-01-29T04:11:33.325Z,84.88
2018-01-29T04:14:00.770Z,84.84
2018-01-29T04:16:28.226Z,85.20
2018-01-29T04:18:55.677Z,84.98
2018-01-29T04:21:23.153Z,85.23
2018-01-29T04:23:50.650Z,85.30
2018-01-29T04:26:18.099Z,85.52
2018-01-29T04:28:45.635Z,85.85
2018-01-29T04:31:13.084Z,85.46
2018-01-29T04:33:40.788Z,85.75
2018-01-29T04:36:08.223Z,85.98
2018-01-29T04:38:35.656Z,86.07
2018-01-29T04:41:03.117Z,85.49
2018-01-29T04:43:30.581Z,85.67
2018-01-29T04:46:02.069Z,85.69
2018-01-29T04:48:29.513Z,85.71
2018-01-29T04:50:56.972Z,85.68
2018-01-29T04:53:24.429Z,86.18
2018-01-29T04:55:51.864Z,86.33
2018-01-29T04:58:19.645Z,86.03
2018-01-29T05:00:47.105Z,86.29
2018-01-29T05:03:14.541Z,86.54
2018-01-29T05:05:41.996Z,86.17
2018-01-29T05:08:09.433Z,84.82
2018-01-29T05:10:37.249Z,85.92
2018-01-29T05:13:04.704Z,85.37
2018-01-29T05:15:32.152Z,86.26
2018-01-29T05:17:59.616Z,85.30
2018-01-29T05:20:27.062Z,85.41
2018-01-29T05:22:54.822Z,85.22
2018-01-29T05:25:22.264Z,85.08
2018-01-29T05:27:49.736Z,85.82
2018-01-29T05:30:17.193Z,85.74
2018-01-29T05:32:44.645Z,85.16
2018-01-29T05:35:12.500Z,85.30
2018-01-29T05:37:41.492Z,85.48
2018-01-29T05:40:08.929Z,85.08
2018-01-29T05:42:36.392Z,85.23
2018-01-29T05:45:03.836Z,85.35
2018-01-29T05:47:31.543Z,85.59
2018-01-29T05:49:59.018Z,85.46
2018-01-29T05:52:26.464Z,85.50
2018-01-29T05:54:53.922Z,85.97
2018-01-29T05:57:21.377Z,85.32
2018-01-29T05:59:48.840Z,85.67
2018-01-29T06:02:16.277Z,86.05
2018-01-29T06:04:43.718Z,85.84
2018-01-29T06:07:11.180Z,85.94
2018-01-29T06:09:38.968Z,85.88
2018-01-29T06:12:06.444Z,85.92
2018-01-29T06:14:33.925Z,85.88
2018-01-29T06:17:01.366Z,86.21
2018-01-29T06:19:28.824Z,86.36
2018-01-29T06:21:56.269Z,86.18
2018-01-29T06:24:24.006Z,86.05
2018-01-29T06:26:51.445Z,86.21
2018-01-29T06:29:18.901Z,86.46
2018-01-29T06:31:46.365Z,86.28
2018-01-29T06:34:13.813Z,84.97
2018-01-29T06:36:41.490Z,86.03
2018-01-29T06:39:08.935Z,85.89
2018-01-29T06:41:36.373Z,85.01
2018-01-29T06:44:03.949Z,84.37
2018-01-29T06:46:31.390Z,84.83
2018-01-29T06:48:59.157Z,85.16
2018-01-29T06:51:26.609Z,84.74
2018-01-29T06:53:54.041Z,85.32
2018-01-29T06:56:21.568Z,84.32
2018-01-29T06:58:49.088Z,84.55
2018-01-29T07:01:16.561Z,84.35
2018-01-29T07:03:44.001Z,83.61
2018-01-29T07:06:11.441Z,83.07
2018-01-29T07:08:38.912Z,82.50
2018-01-29T07:11:06.401Z,83.75
2018-01-29T07:13:34.211Z,83.22
2018-01-29T07:16:01.652Z,83.37
2018-01-29T07:18:29.088Z,83.34
2018-01-29T07:20:56.545Z,83.41
2018-01-29T07:23:23.988Z,82.74
2018-01-29T07:25:51.637Z,82.70
2018-01-29T07:28:19.081Z,82.38
2018-01-29T07:30:46.524Z,83.03
2018-01-29T07:33:13.984Z,82.82
2018-01-29T07:35:41.462Z,82.46
2018-01-29T07:38:08.940Z,82.88
2018-01-29T07:40:36.383Z,83.21
2018-01-29T07:43:03.850Z,82.62
2018-01-29T07:45:31.323Z,82.29
2018-01-29T07:47:58.774Z,82.35
2018-01-29T07:50:26.282Z,82.14
2018-01-29T07:52:53.729Z,82.38
2018-01-29T07:55:21.194Z,81.98
2018-01-29T07:57:49.514Z,81.97
2018-01-29T08:00:16.966Z,81.69
2018-01-29T08:02:44.458Z,81.91
2018-01-29T08:05:11.920Z,81.81
2018-01-29T08:07:39.370Z,81.71
2018-01-29T08:10:06.847Z,81.78
2018-01-29T08:12:34.302Z,81.48
2018-01-29T08:15:01.803Z,81.58
2018-01-29T08:17:29.246Z,80.91
2018-01-29T08:19:56.707Z,80.52
2018-01-29T08:22:24.190Z,80.40
2018-01-29T08:24:51.754Z,80.61
2018-01-29T08:27:19.502Z,80.28
2018-01-29T08:29:46.958Z,80.23
2018-01-29T08:32:15.275Z,80.20
2018-01-29T08:34:42.742Z,80.65
2018-01-29T08:37:10.798Z,80.05
2018-01-29T08:39:38.295Z,80.37
2018-01-29T08:42:05.758Z,80.22
2018-01-29T08:44:33.210Z,79.88
2018-01-29T08:47:00.686Z,79.92
2018-01-29T08:49:28.336Z,79.55
2018-01-29T08:51:56.006Z,78.38
2018-01-29T08:54:23.466Z,78.54
2018-01-29T08:56:50.918Z,78.63
2018-01-29T08:59:18.409Z,78.81
2018-01-29T09:01:45.875Z,78.24
2018-01-29T09:04:13.591Z,78.32
2018-01-29T09:06:41.043Z,78.36
2018-01-29T09:09:08.490Z,78.06
2018-01-29T09:11:35.970Z,77.96
2018-01-29T09:14:03.419Z,78.31
2018-01-29T09:16:31.194Z,78.01
2018-01-29T09:18:58.739Z,77.58
2018-01-29T09:21:26.186Z,77.33
2018-01-29T09:23:53.666Z,77.49
2018-01-29T09:26:21.126Z,77.22
2018-01-29T09:28:48.743Z,77.42
2018-01-29T09:31:16.210Z,77.12
2018-01-29T09:33:43.669Z,77.41
2018-01-29T09:36:11.154Z,77.00
2018-01-29T09:38:38.606Z,77.13
2018-01-29T09:41:06.190Z,76.44
2018-01-29T09:43:33.642Z,76.56
2018-01-29T09:46:01.139Z,76.58
2018-01-29T09:48:28.639Z,76.12
2018-01-29T09:50:56.094Z,76.83
2018-01-29T09:53:23.575Z,76.78
2018-01-29T09:55:51.031Z,76.94
2018-01-29T09:58:18.499Z,76.80
2018-01-29T10:00:45.961Z,76.83
2018-01-29T10:03:13.433Z,76.73
2018-01-29T10:05:40.908Z,76.21
2018-01-29T10:08:08.357Z,76.50
2018-01-29T10:10:35.797Z,76.50
2018-01-29T10:13:03.265Z,76.53
2018-01-29T10:15:30.708Z,76.33
2018-01-29T10:17:58.177Z,75.66
2018-01-29T10:20:25.620Z,75.93
2018-01-29T10:22:53.080Z,75.67
2018-01-29T10:25:20.536Z,75.80
2018-01-29T10:27:48.894Z,75.96
2018-01-29T10:30:30.272Z,75.09
2018-01-29T10:33:01.881Z,74.92
2018-01-29T10:35:30.385Z,75.52
2018-01-29T10:37:59.789Z,75.20
2018-01-29T10:40:33.045Z,74.69
2018-01-29T10:43:00.485Z,74.13
2018-01-29T10:45:28.044Z,74.21
2018-01-29T10:47:55.617Z,73.58
2018-01-29T10:50:24.700Z,74.53
2018-01-29T10:52:55.421Z,74.04
2018-01-29T10:55:32.784Z,74.17
2018-01-29T10:58:01.800Z,74.01
2018-01-29T11:00:39.843Z,74.05
2018-01-29T11:03:07.310Z,74.08
2018-01-29T11:05:49.201Z,73.87
2018-01-29T11:08:18.046Z,73.83
2018-01-29T11:10:45.533Z,73.87
2018-01-29T11:13:13.805Z,73.46
2018-01-29T11:15:43.182Z,73.70
2018-01-29T11:18:17.662Z,74.16
2018-01-29T11:20:46.013Z,74.11
2018-01-29T11:23:13.460Z,74.12
2018-01-29T11:25:40.940Z,73.56
2018-01-29T11:28:08.405Z,73.55
2018-01-29T11:30:36.741Z,73.89
2018-01-29T11:33:04.329Z,73.96
2018-01-29T11:35:33.299Z,72.89
2018-01-29T11:38:00.746Z,73.51
2018-01-29T11:40:31.292Z,73.52
2018-01-29T11:42:58.732Z,73.52
2018-01-29T11:45:26.320Z,73.85
2018-01-29T11:47:53.761Z,73.73
2018-01-29T11:50:21.201Z,74.20
2018-01-29T11:52:48.799Z,73.82
2018-01-29T11:55:16.247Z,73.96
2018-01-29T11:57:43.808Z,73.50
2018-01-29T12:00:11.248Z,73.85
2018-01-29T12:02:38.694Z,73.73
2018-01-29T12:05:06.982Z,74.10
2018-01-29T12:07:34.428Z,74.07
2018-01-29T12:10:02.134Z,74.19
2018-01-29T12:12:29.605Z,74.01
2018-01-29T12:14:57.041Z,74.34
2018-01-29T12:17:24.496Z,74.76
2018-01-29T12:19:51.953Z,74.26
2018-01-29T12:22:19.422Z,73.56
2018-01-29T12:24:46.961Z,73.46
2018-01-29T12:27:14.412Z,73.34
2018-01-29T12:29:41.873Z,73.12
2018-01-29T12:32:09.317Z,73.72
2018-01-29T12:34:37.193Z,72.49
2018-01-29T12:37:04.632Z,72.53
2018-01-29T12:39:32.076Z,72.81
2018-01-29T12:41:59.584Z,72.79
2018-01-29T12:44:27.033Z,72.74
2018-01-29T12:46:54.511Z,72.78
2018-01-29T12:49:21.970Z,72.66
2018-01-29T12:51:49.446Z,73.76
2018-01-29T12:54:16.886Z,73.74
2018-01-29T12:56:44.365Z,73.52
2018-01-29T12:59:11.811Z,73.40
2018-01-29T13:01:39.286Z,73.04
2018-01-29T13:04:06.733Z,73.37
2018-01-29T13:06:34.191Z,73.67
2018-01-29T13:09:01.652Z,72.49
2018-01-29T13:11:29.109Z,73.26
2018-01-29T13:13:56.580Z,73.09
2018-01-29T13:16:24.018Z,73.17
2018-01-29T13:18:51.485Z,72.67
2018-01-29T13:21:18.976Z,73.42
2018-01-29T13:23:46.424Z,73.49
2018-01-29T13:26:13.938Z,73.19
2018-01-29T13:28:41.377Z,72.88
2018-01-29T13:31:08.837Z,73.56
2018-01-29T13:33:36.289Z,73.27
2018-01-29T13:36:03.756Z,73.42
2018-01-29T13:38:31.204Z,73.44
2018-01-29T13:40:58.691Z,73.19
2018-01-29T13:43:26.132Z,73.53
2018-01-29T13:45:53.676Z,72.94
2018-01-29T13:48:21.113Z,73.47
2018-01-29T13:50:48.569Z,73.74
2018-01-29T13:53:16.065Z,72.87
2018-01-29T13:55:43.505Z,73.26
2018-01-29T13:58:11.178Z,73.29
2018-01-29T14:00:38.636Z,72.97
2018-01-29T14:03:06.120Z,72.68
2018-01-29T14:05:33.561Z,73.10
2018-01-29T14:08:01.033Z,72.65
2018-01-29T14:10:28.920Z,72.71
2018-01-29T14:12:56.384Z,72.74
2018-01-29T14:15:23.873Z,72.64
2018-01-29T14:17:51.606Z,73.08
2018-01-29T14:20:19.048Z,72.50
2018-01-29T14:22:46.763Z,71.92
2018-01-29T14:25:14.232Z,71.83
2018-01-29T14:27:41.679Z,71.42
2018-01-29T14:30:09.156Z,71.42
2018-01-29T14:32:36.638Z,71.90
2018-01-29T14:35:04.371Z,72.31
2018-01-29T14:37:31.838Z,72.21
2018-01-29T14:39:59.320Z,72.88
2018-01-29T14:42:26.777Z,72.28
2018-01-29T14:44:54.424Z,72.13
2018-01-29T14:47:23.118Z,72.41
2018-01-29T14:49:50.609Z,72.12
2018-01-29T14:52:18.398Z,71.98
2018-01-29T14:54:45.841Z,72.36
2018-01-29T14:57:13.284Z,72.49
2018-01-29T14:59:40.797Z,72.12
2018-01-29T15:02:08.245Z,72.71
2018-01-29T15:04:35.929Z,72.55
2018-01-29T15:07:03.371Z,71.32
2018-01-29T15:09:30.829Z,72.14
2018-01-29T15:11:58.302Z,71.82
2018-01-29T15:14:25.761Z,72.13
2018-01-29T15:16:53.420Z,72.44
2018-01-29T15:19:20.857Z,72.03
2018-01-29T15:21:48.296Z,72.37
2018-01-29T15:24:15.757Z,72.81
2018-01-29T15:26:43.249Z,72.68
2018-01-29T15:29:11.005Z,72.89
2018-01-29T15:31:38.448Z,72.75
2018-01-29T15:34:05.907Z,73.10
2018-01-29T15:36:33.400Z,72.75
2018-01-29T15:39:00.897Z,73.17
2018-01-29T15:41:29.065Z,73.61
2018-01-29T15:43:56.508Z,73.89
2018-01-29T15:46:25.729Z,74.00
2018-01-29T15:48:54.109Z,74.24
2018-01-29T15:51:21.580Z,73.72
2018-01-29T15:53:51.397Z,73.80
2018-01-29T15:56:34.386Z,74.16
2018-01-29T15:59:01.965Z,74.55
2018-01-29T16:01:44.602Z,74.69
2018-01-29T16:04:13.546Z,74.75
2018-01-29T16:06:42.488Z,75.21
2018-01-29T16:09:12.732Z,74.13
2018-01-29T16:11:44.985Z,74.23
2018-01-29T16:14:18.168Z,73.52
2018-01-29T16:16:49.657Z,73.21
2018-01-29T16:19:18.484Z,71.60
2018-01-29T16:21:46.118Z,71.60
2018-01-29T16:24:21.871Z,71.66
2018-01-29T16:26:55.893Z,70.64
2018-01-29T16:29:24.925Z,70.69
2018-01-29T16:31:55.109Z,71.09
2018-01-29T16:34:23.969Z,71.47
2018-01-29T16:36:51.438Z,71.79
2018-01-29T16:39:19.101Z,71.68
2018-01-29T16:41:46.581Z,72.16
2018-01-29T16:44:17.602Z,72.29
2018-01-29T16:46:50.089Z,72.60
2018-01-29T16:49:17.538Z,72.89
2018-01-29T16:51:45.097Z,72.55
2018-01-29T16:54:14.633Z,72.90
2018-01-29T16:56:42.157Z,72.83
2018-01-29T16:59:09.647Z,72.04
2018-01-29T17:01:39.775Z,72.14
2018-01-29T17:04:07.285Z,70.99
2018-01-29T17:06:36.071Z,71.34
2018-01-29T17:09:07.418Z,70.96
2018-01-29T17:11:38.554Z,71.26
2018-01-29T17:14:06.014Z,71.00
2018-01-29T17:16:33.627Z,70.95
2018-01-29T17:19:01.699Z,70.75
2018-01-29T17:21:32.049Z,71.02
2018-01-29T17:24:00.195Z,71.41
2018-01-29T17:26:27.676Z,71.16
2018-01-29T17:28:56.006Z,70.90
2018-01-29T17:31:23.449Z,70.79
2018-01-29T17:33:58.062Z,71.02
2018-01-29T17:36:25.528Z,71.04
2018-01-29T17:38:52.989Z,71.25
2018-01-29T17:41:29.373Z,71.60
2018-01-29T17:43:58.070Z,71.71
2018-01-29T17:46:26.296Z,72.13
2018-01-29T17:48:54.636Z,72.39
2018-01-29T17:51:29.762Z,72.75
2018-01-29T17:53:59.192Z,71.92
2018-01-29T17:56:30.102Z,71.77
2018-01-29T17:58:57.621Z,71.87
2018-01-29T18:01:25.085Z,71.74
2018-01-29T18:03:52.691Z,72.02
2018-01-29T18:06:20.179Z,71.43
2018-01-29T18:08:47.627Z,70.77
2018-01-29T18:11:15.137Z,70.91
2018-01-29T18:13:43.562Z,70.63
2018-01-29T18:16:12.785Z,70.23
2018-01-29T18:18:46.119Z,70.45
2018-01-29T18:21:13.561Z,70.36
2018-01-29T18:23:45.130Z,71.45
2018-01-29T18:26:19.949Z,70.78
2018-01-29T18:28:48.433Z,71.09
2018-01-29T18:31:25.818Z,71.00
2018-01-29T18:33:57.686Z,70.92
2018-01-29T18:36:35.043Z,70.97
2018-01-29T18:39:02.637Z,70.87
2018-01-29T18:41:32.417Z,71.08
2018-01-29T18:43:59.984Z,71.23
2018-01-29T18:46:31.508Z,71.24
2018-01-29T18:48:58.959Z,71.68
2018-01-29T18:51:33.533Z,71.32
2018-01-29T18:54:03.218Z,71.63
2018-01-29T18:56:34.864Z,71.63
2018-01-29T18:59:02.410Z,71.47
2018-01-29T19:01:29.951Z,71.13
2018-01-29T19:03:58.657Z,71.17
2018-01-29T19:06:26.468Z,70.76
2018-01-29T19:08:56.129Z,70.79
2018-01-29T19:11:23.775Z,70.27
2018-01-29T19:13:56.196Z,70.44
2018-01-29T19:16:27.933Z,70.45
2018-01-29T19:19:06.298Z,70.47
2018-01-29T19:21:38.421Z,70.42
2018-01-29T19:24:08.773Z,70.75
2018-01-29T19:26:38.737Z,70.92
2018-01-29T19:29:09.108Z,71.56
2018-01-29T19:31:38.173Z,71.67
2018-01-29T19:34:10.504Z,71.89
2018-01-29T19:36:40.826Z,71.36
2018-01-29T19:39:08.273Z,71.70
2018-01-29T19:41:35.748Z,71.76
2018-01-29T19:44:03.209Z,72.26
2018-01-29T19:46:30.678Z,72.52
2018-01-29T19:48:58.121Z,72.47
2018-01-29T19:51:25.613Z,72.63
2018-01-29T19:53:53.061Z,73.02
2018-01-29T19:56:20.503Z,73.33
2018-01-29T19:58:47.985Z,74.01
2018-01-29T20:01:15.429Z,74.51
2018-01-29T20:03:42.910Z,75.17
2018-01-29T20:06:10.389Z,75.34
2018-01-29T20:08:37.824Z,75.98
2018-01-29T20:11:05.293Z,76.99
2018-01-29T20:13:32.805Z,77.13
2018-01-29T20:16:00.288Z,77.70
2018-01-29T20:18:27.745Z,78.44
2018-01-29T20:20:55.890Z,78.81
2018-01-29T20:23:23.349Z,78.85
2018-01-29T20:25:50.847Z,79.25
2018-01-29T20:28:18.285Z,79.29
2018-01-29T20:30:45.728Z,79.46
2018-01-29T20:33:13.216Z,79.04
2018-01-29T20:35:40.656Z,79.06
2018-01-29T20:38:08.126Z,79.25
2018-01-29T20:40:35.615Z,79.57
2018-01-29T20:43:04.569Z,79.55
2018-01-29T20:45:35.569Z,79.23
2018-01-29T20:48:03.037Z,79.60
2018-01-29T20:50:40.794Z,79.47
2018-01-29T20:53:08.433Z,79.64
2018-01-29T20:55:35.872Z,79.94
2018-01-29T20:58:18.233Z,80.47
2018-01-29T21:00:55.660Z,80.20
2018-01-29T21:03:23.140Z,80.22
2018-01-29T21:05:50.586Z,80.64
2018-01-29T21:08:21.462Z,80.67
2018-01-29T21:10:53.130Z,81.45
2018-01-29T21:13:23.542Z,81.86
2018-01-29T21:15:55.302Z,82.47
2018-01-29T21:18:27.818Z,82.61
2018-01-29T21:20:56.537Z,82.48
2018-01-29T21:23:23.993Z,82.49
2018-01-29T21:25:54.366Z,82.44
2018-01-29T21:28:26.588Z,82.59
2018-01-29T21:31:11.346Z,82.73
2018-01-29T21:33:42.489Z,82.87
2018-01-29T21:36:21.589Z,82.68
2018-01-29T21:38:58.140Z,83.21
2018-01-29T21:41:25.728Z,83.42
2018-01-29T21:43:53.201Z,83.18
2018-01-29T21:46:20.647Z,83.46
2018-01-29T21:48:48.096Z,83.53
2018-01-29T21:51:15.556Z,83.52
2018-01-29T21:53:43.016Z,83.15
2018-01-29T21:56:10.633Z,83.68
2018-01-29T21:58:38.107Z,84.04
2018-01-29T22:01:05.568Z,83.53
2018-01-29T22:03:33.045Z,83.56
2018-01-29T22:06:00.506Z,83.88
2018-01-29T22:08:27.979Z,84.21
2018-01-29T22:10:55.435Z,84.12
2018-01-29T22:13:22.937Z,84.28
2018-01-29T22:15:50.384Z,83.83
2018-01-29T22:18:17.828Z,83.95
2018-01-29T22:20:45.286Z,84.00
2018-01-29T22:23:12.731Z,84.62
2018-01-29T22:25:40.381Z,84.03
2018-01-29T22:28:07.856Z,83.96
2018-01-29T22:30:35.539Z,83.90
2018-01-29T22:33:03.025Z,83.87
2018-01-29T22:35:30.465Z,84.26
2018-01-29T22:37:58.169Z,84.56
2018-01-29T22:40:25.621Z,84.74
2018-01-29T22:42:59.233Z,85.39
2018-01-29T22:45:32.652Z,85.52
2018-01-29T22:48:03.109Z,85.60
2018-01-29T22:50:46.063Z,85.20
2018-01-29T22:53:13.696Z,85.29
2018-01-29T22:55:41.191Z,85.20
2018-01-29T22:58:08.628Z,85.29
2018-01-29T23:00:43.580Z,85.40
2018-01-29T23:03:25.772Z,84.86
2018-01-29T23:06:00.261Z,85.57
2018-01-29T23:08:35.742Z,86.71
2018-01-29T23:11:14.311Z,87.40
2018-01-29T23:13:43.448Z,87.92
2018-01-29T23:16:20.949Z,88.20
2018-01-29T23:18:49.249Z,88.02
2018-01-29T23:21:19.611Z,88.41
2018-01-29T23:23:54.283Z,89.23
2018-01-29T23:26:28.624Z,89.49
2018-01-29T23:28:57.476Z,90.51
2018-01-29T23:31:24.953Z,91.23
2018-01-29T23:34:03.350Z,90.39
2018-01-29T23:36:54.017Z,89.23
2018-01-29T23:39:21.814Z,89.69
2018-01-29T23:41:53.747Z,89.27
2018-01-29T23:44:26.509Z,90.00
2018-01-29T23:46:53.948Z,88.12
2018-01-29T23:49:27.103Z,89.67
2018-01-29T23:52:01.082Z,89.93
2018-01-29T23:54:31.740Z,88.75
2018-01-29T23:57:02.536Z,89.01
2018-01-29T23:59:37.512Z,88.59
